Time;durP1;ratioP1;P1;durP2;ratioP2;P2;SDS_P1;SDS_P2;PMS_P1;PMS_P2;Temp;Humidity;BMP_temperature;BMP_pressure;BME280_temperature;BME280_humidity;BME280_pressure;Samples;Min_cycle;Max_cycle;Signal;HPM_P1;HPM_P2
2021/06/05 00:00:25;;;;;;;7.70;6.00;;;;;;;16.18;81.08;101779.53;5010291;28;20502;-72
2021/06/05 00:02:53;;;;;;;8.13;6.20;;;;;;;15.50;83.64;101788.47;5010284;28;20494;-71
2021/06/05 00:05:23;;;;;;;8.65;6.47;;;;;;;15.81;84.25;101780.94;5027278;28;20049;-72
2021/06/05 00:07:55;;;;;;;9.10;5.97;;;;;;;15.67;84.07;101783.81;5030828;28;20050;-72
2021/06/05 00:10:30;;;;;;;8.02;6.13;;;;;;;15.75;84.37;101794.16;5033116;28;20046;-72
2021/06/05 00:12:58;;;;;;;7.95;6.07;;;;;;;15.36;85.14;101807.19;5032182;28;20366;-71
2021/06/05 00:15:33;;;;;;;8.65;6.47;;;;;;;15.29;86.66;101807.63;5031374;28;20049;-72
2021/06/05 00:18:00;;;;;;;8.80;6.72;;;;;;;15.23;85.99;101808.09;5010898;28;20073;-72
2021/06/05 00:20:30;;;;;;;9.15;6.60;;;;;;;15.22;86.71;101803.69;5012835;28;20046;-71
2021/06/05 00:22:59;;;;;;;9.00;6.40;;;;;;;15.39;85.56;101801.00;5012419;28;20046;-71
2021/06/05 00:25:29;;;;;;;8.55;6.93;;;;;;;15.27;86.80;101801.56;5043033;28;20049;-72
2021/06/05 00:27:57;;;;;;;10.10;6.85;;;;;;;15.61;86.76;101799.00;5027182;28;20516;-72
2021/06/05 00:30:26;;;;;;;8.48;6.22;;;;;;;15.64;84.71;101794.75;5014171;28;20045;-72
2021/06/05 00:32:54;;;;;;;10.57;7.35;;;;;;;15.66;85.42;101787.75;5030293;28;20060;-72
2021/06/05 00:35:24;;;;;;;9.25;6.95;;;;;;;15.77;83.84;101791.06;5031417;28;20064;-71
2021/06/05 00:37:52;;;;;;;10.20;7.30;;;;;;;15.46;84.38;101799.41;5027899;28;20054;-71
2021/06/05 00:40:23;;;;;;;9.43;7.45;;;;;;;15.24;86.42;101788.34;5011547;28;20053;-72
2021/06/05 00:42:55;;;;;;;9.95;7.93;;;;;;;15.25;86.70;101791.94;4993598;28;20053;-70
2021/06/05 00:45:27;;;;;;;9.90;7.90;;;;;;;15.71;86.37;101782.03;5010132;28;20072;-70
2021/06/05 00:47:55;;;;;;;10.80;8.32;;;;;;;15.44;85.57;101785.06;4977973;28;20057;-71
2021/06/05 00:50:24;;;;;;;11.35;9.30;;;;;;;15.15;86.78;101784.69;5015481;28;20404;-69
2021/06/05 00:52:52;;;;;;;12.23;9.38;;;;;;;15.09;88.04;101785.16;5029694;28;20054;-72
2021/06/05 00:55:23;;;;;;;12.27;9.80;;;;;;;15.10;87.66;101793.16;5046011;28;20053;-71
2021/06/05 00:57:51;;;;;;;12.38;9.80;;;;;;;14.94;89.20;101789.13;5013026;28;20080;-70
2021/06/05 01:00:51;;;;;;;12.20;9.57;;;;;;;15.14;90.09;101782.25;5062558;28;20052;-71
2021/06/05 01:03:20;;;;;;;15.43;9.93;;;;;;;15.18;87.31;101778.53;5014462;28;20201;-71
2021/06/05 01:05:53;;;;;;;12.18;9.50;;;;;;;15.03;89.31;101790.00;5009348;28;20077;-69
2021/06/05 01:08:23;;;;;;;13.65;11.18;;;;;;;15.04;88.91;101779.75;5010027;28;20379;-72
2021/06/05 01:10:55;;;;;;;13.95;11.48;;;;;;;15.12;88.38;101779.78;4993809;28;20042;-71
2021/06/05 01:13:56;;;;;;;15.43;13.10;;;;;;;14.86;90.15;101787.13;5009144;28;20056;-71
2021/06/05 01:16:25;;;;;;;16.20;10.93;;;;;;;14.96;89.70;101774.97;5025733;28;20682;-71
2021/06/05 01:19:04;;;;;;;16.43;11.07;;;;;;;15.02;89.35;101773.69;4993520;28;20057;-71
2021/06/05 01:22:04;;;;;;;13.95;10.38;;;;;;;15.11;89.16;101775.38;5009323;28;20498;-71
2021/06/05 01:24:59;;;;;;;13.98;10.65;;;;;;;15.37;88.30;101767.19;5009244;28;20045;-72
2021/06/05 01:27:30;;;;;;;14.82;11.32;;;;;;;15.28;87.07;101769.91;5025918;28;20421;-73
2021/06/05 01:30:00;;;;;;;17.08;12.07;;;;;;;14.77;90.26;101777.94;5009698;28;20236;-71
2021/06/05 01:32:32;;;;;;;15.35;12.13;;;;;;;14.80;92.52;101768.16;5011363;28;20050;-72
2021/06/05 01:35:01;;;;;;;15.25;10.57;;;;;;;15.28;91.10;101763.53;4993502;28;20053;-72
2021/06/05 01:37:28;;;;;;;13.73;10.48;;;;;;;15.75;87.45;101771.94;5011550;28;20054;-71
2021/06/05 01:40:08;;;;;;;13.55;10.85;;;;;;;15.30;86.87;101775.97;5009176;28;20045;-72
2021/06/05 01:42:37;;;;;;;13.57;9.85;;;;;;;15.49;90.02;101776.56;5024938;28;20054;-70
2021/06/05 01:45:10;;;;;;;18.55;11.93;;;;;;;15.50;86.69;101774.59;5016516;28;20050;-71
2021/06/05 01:47:38;;;;;;;14.25;11.10;;;;;;;15.39;86.82;101779.63;5029721;28;20057;-71
2021/06/05 01:50:09;;;;;;;15.23;11.32;;;;;;;15.24;88.91;101782.78;5029252;28;20058;-72
2021/06/05 01:52:41;;;;;;;17.58;13.00;;;;;;;15.18;89.02;101794.34;5013148;28;20065;-72
2021/06/05 01:55:17;;;;;;;17.58;12.52;;;;;;;15.16;89.52;101791.91;5012965;28;20536;-72
2021/06/05 01:57:52;;;;;;;18.23;12.13;;;;;;;15.13;89.84;101791.72;5016233;28;20069;-71
2021/06/05 02:00:40;;;;;;;15.95;12.60;;;;;;;14.90;90.19;101781.78;5022532;28;20056;-71
2021/06/05 02:03:13;;;;;;;19.27;12.23;;;;;;;15.02;89.95;101776.47;5042468;28;20056;-72
2021/06/05 02:05:45;;;;;;;15.35;12.20;;;;;;;14.71;90.30;101770.06;5009126;28;20068;-72
2021/06/05 02:08:20;;;;;;;16.88;11.70;;;;;;;14.72;90.86;101760.59;5024094;28;20056;-72
2021/06/05 02:10:49;;;;;;;17.25;12.10;;;;;;;14.59;91.30;101751.22;5025168;28;20057;-72
2021/06/05 02:13:19;;;;;;;;;;;;;;;14.56;91.55;101744.34;5014786;28;20046;-71
2021/06/05 02:15:58;;;;;;;14.95;10.88;;;;;;;14.74;91.28;101747.22;5013325;28;19922;-71
2021/06/05 02:18:33;;;;;;;15.23;11.02;;;;;;;15.27;88.79;101746.06;5029315;28;20432;-71
2021/06/05 02:21:11;;;;;;;19.55;12.80;;;;;;;14.99;89.06;101754.91;4997998;28;20046;-72
2021/06/05 02:23:48;;;;;;;16.83;11.88;;;;;;;15.08;89.98;101756.56;5029021;28;20057;-71
2021/06/05 02:26:18;;;;;;;15.98;12.20;;;;;;;15.41;87.68;101765.44;4995951;28;20050;-73
2021/06/05 02:28:51;;;;;;;23.35;14.93;;;;;;;15.27;88.54;101761.91;5028776;28;20046;-72
2021/06/05 02:31:19;;;;;;;21.23;15.15;;;;;;;15.09;89.52;101762.94;4996333;28;20417;-71
2021/06/05 02:33:48;;;;;;;22.33;16.45;;;;;;;14.90;89.50;101760.41;5041567;28;20579;-72
2021/06/05 02:36:18;;;;;;;20.70;15.05;;;;;;;15.18;89.37;101755.50;5032557;28;20451;-72
2021/06/05 02:38:49;;;;;;;22.88;16.80;;;;;;;14.76;89.85;101762.44;5032443;28;20069;-73
2021/06/05 02:41:23;;;;;;;23.85;16.08;;;;;;;14.76;90.14;101761.59;5016678;28;20050;-73
2021/06/05 02:43:54;;;;;;;20.95;15.02;;;;;;;14.97;93.35;101760.78;5015974;28;20050;-72
2021/06/05 02:46:37;;;;;;;20.77;15.18;;;;;;;14.91;89.94;101750.09;4999678;28;20061;-71
2021/06/05 02:49:08;;;;;;;;;;;;;;;15.33;89.14;101755.06;5012857;28;20050;-71
2021/06/05 02:51:42;;;;;;;23.38;16.98;;;;;;;15.16;88.38;101750.28;5027951;28;19921;-74
2021/06/05 02:54:20;;;;;;;24.27;17.80;;;;;;;15.35;88.28;101753.63;5027605;28;20076;-72
2021/06/05 02:56:48;;;;;;;26.00;18.52;;;;;;;15.62;87.38;101766.50;5000951;28;20065;-72
2021/06/05 02:59:17;;;;;;;40.72;23.02;;;;;;;14.56;88.72;101765.69;5015313;28;20409;-71
2021/06/05 03:01:50;;;;;;;40.15;23.85;;;;;;;14.39;91.68;101762.78;5034065;28;20045;-73
2021/06/05 03:04:19;;;;;;;42.65;23.27;;;;;;;14.65;89.08;101763.81;5013697;28;20064;-70
2021/06/05 03:06:47;;;;;;;40.78;21.92;;;;;;;14.68;90.07;101760.41;5032921;28;20370;-70
2021/06/05 03:09:18;;;;;;;35.33;21.52;;;;;;;14.78;86.81;101759.34;5032010;28;20041;-72
2021/06/05 03:11:49;;;;;;;40.60;24.10;;;;;;;14.53;88.74;101760.78;5031526;28;20129;-71
2021/06/05 03:14:17;;;;;;;34.35;20.48;;;;;;;15.16;87.64;101768.88;5025188;28;20516;-71
2021/06/05 03:16:47;;;;;;;35.75;19.52;;;;;;;15.22;87.90;101762.84;5011772;28;20069;-73
2021/06/05 03:19:17;;;;;;;;;;;;;;;14.96;87.52;101758.31;5028220;28;20046;-72
2021/06/05 03:21:46;;;;;;;32.10;19.57;;;;;;;14.97;86.49;101758.00;5026717;28;20281;-71
2021/06/05 03:24:24;;;;;;;41.00;20.77;;;;;;;14.52;87.09;101770.25;5041375;28;20296;-71
2021/06/05 03:26:53;;;;;;;42.08;20.48;;;;;;;13.93;91.56;101773.25;5053300;28;20060;-71
2021/06/05 03:29:22;;;;;;;;;;;;;;;13.92;92.26;101766.06;5048796;28;20481;-71
2021/06/05 03:31:56;;;;;;;33.28;18.77;;;;;;;14.16;91.88;101761.06;5033990;28;19928;-71
2021/06/05 03:34:30;;;;;;;29.35;19.60;;;;;;;14.09;90.99;101757.91;5015732;28;20041;-71
2021/06/05 03:36:58;;;;;;;31.33;19.02;;;;;;;14.48;90.84;101766.47;5008964;28;20397;-73
2021/06/05 03:39:26;;;;;;;29.15;17.67;;;;;;;14.80;87.99;101754.28;5011765;28;20045;-71
2021/06/05 03:41:57;;;;;;;31.27;17.23;;;;;;;14.49;89.10;101755.06;5026712;28;20054;-72
2021/06/05 03:44:26;;;;;;;28.52;16.73;;;;;;;14.32;90.28;101754.09;5011140;28;20050;-71
2021/06/05 03:46:54;;;;;;;24.13;15.82;;;;;;;14.61;87.90;101757.25;4999618;28;20045;-74
2021/06/05 03:49:23;;;;;;;24.63;15.53;;;;;;;14.48;88.42;101755.38;5031228;28;20053;-72
2021/06/05 03:51:52;;;;;;;27.70;16.20;;;;;;;14.55;89.19;101758.53;5063523;28;20054;-70
2021/06/05 03:54:22;;;;;;;25.55;15.88;;;;;;;14.44;88.34;101762.66;5032447;28;20045;-72
2021/06/05 03:56:49;;;;;;;22.75;15.40;;;;;;;14.91;89.73;101763.97;5030940;28;20121;-72
2021/06/05 03:59:17;;;;;;;25.42;14.68;;;;;;;15.25;86.43;101762.25;5003540;28;20069;-72
2021/06/05 04:01:44;;;;;;;24.77;15.30;;;;;;;15.51;82.26;101763.19;5009992;28;20502;-72
2021/06/05 04:04:12;;;;;;;24.25;15.45;;;;;;;14.51;84.79;101768.59;5012415;28;20046;-71
2021/06/05 04:06:39;;;;;;;29.38;16.10;;;;;;;14.25;87.09;101773.06;5011981;28;20057;-71
2021/06/05 04:09:07;;;;;;;26.75;16.05;;;;;;;14.16;89.92;101767.44;5010870;28;20049;-73
2021/06/05 04:11:35;;;;;;;36.05;16.80;;;;;;;14.00;88.84;101765.34;5026849;28;20053;-72
2021/06/05 04:14:03;;;;;;;26.02;16.17;;;;;;;14.19;89.50;101769.59;5030518;28;20050;-72
2021/06/05 04:16:31;;;;;;;25.98;16.65;;;;;;;14.19;87.24;101772.34;5029962;28;20045;-72
2021/06/05 04:18:59;;;;;;;28.52;15.50;;;;;;;14.43;88.88;101772.97;5046220;28;20053;-72
2021/06/05 04:21:26;;;;;;;21.88;14.48;;;;;;;14.93;86.79;101776.41;5017345;28;20176;-71
2021/06/05 04:23:54;;;;;;;24.52;14.55;;;;;;;14.55;84.47;101773.22;5026889;28;20050;-73
2021/06/05 04:26:23;;;;;;;19.65;12.95;;;;;;;15.02;87.53;101782.00;5011842;28;20049;-72
2021/06/05 04:28:51;;;;;;;21.20;13.38;;;;;;;15.37;83.73;101776.34;5046319;28;20045;-72
2021/06/05 04:31:19;;;;;;;22.27;13.23;;;;;;;14.72;83.03;101775.28;5030467;28;20499;-72
2021/06/05 04:33:47;;;;;;;18.60;13.02;;;;;;;14.60;84.63;101792.50;5029869;28;20049;-71
2021/06/05 04:36:15;;;;;;;27.55;14.95;;;;;;;14.18;85.78;101789.31;5030244;28;20060;-71
2021/06/05 04:38:44;;;;;;;25.40;13.95;;;;;;;14.06;88.10;101786.25;5028149;28;20049;-71
2021/06/05 04:41:14;;;;;;;23.35;13.77;;;;;;;14.17;86.44;101796.00;5011663;28;20573;-71
2021/06/05 04:43:41;;;;;;;23.55;14.50;;;;;;;13.82;88.68;101796.75;5027184;28;20057;-71
2021/06/05 04:46:09;;;;;;;21.98;13.00;;;;;;;14.04;90.27;101783.78;5011694;28;20053;-72
2021/06/05 04:48:36;;;;;;;19.67;11.35;;;;;;;14.82;89.65;101788.88;5010248;28;20053;-71
2021/06/05 04:51:04;;;;;;;20.55;13.77;;;;;;;14.67;84.37;101797.59;4993850;28;20065;-72
2021/06/05 04:53:33;;;;;;;22.83;11.82;;;;;;;15.05;85.96;101796.06;5020395;28;20049;-70
2021/06/05 04:56:01;;;;;;;20.58;12.48;;;;;;;14.58;83.26;101803.06;5031063;28;20045;-73
2021/06/05 04:58:30;;;;;;;24.25;12.30;;;;;;;13.98;86.22;101814.69;5029990;28;20056;-72
2021/06/05 05:01:00;;;;;;;20.10;11.63;;;;;;;14.19;87.10;101805.59;5031137;28;20045;-70
2021/06/05 05:03:29;;;;;;;20.85;10.73;;;;;;;14.75;85.67;101809.91;5031292;28;20033;-73
2021/06/05 05:06:00;;;;;;;21.60;11.15;;;;;;;14.57;85.19;101806.97;5015448;28;20061;-70
2021/06/05 05:08:29;;;;;;;21.48;12.18;;;;;;;14.37;84.18;101812.16;5041804;28;20427;-72
2021/06/05 05:10:58;;;;;;;15.77;10.88;;;;;;;14.71;88.73;101812.47;5009294;28;20485;-70
2021/06/05 05:13:28;;;;;;;20.88;12.55;;;;;;;14.15;86.48;101817.63;5009539;28;20057;-71
2021/06/05 05:15:56;;;;;;;16.60;10.38;;;;;;;14.73;86.08;101820.50;5009676;28;20529;-71
2021/06/05 05:18:25;;;;;;;19.77;11.32;;;;;;;14.60;83.66;101827.72;5011187;28;20068;-72
2021/06/05 05:20:53;;;;;;;16.92;10.38;;;;;;;14.37;83.85;101840.72;5061754;28;20053;-70
2021/06/05 05:23:27;;;;;;;21.67;9.38;;;;;;;14.36;88.14;101830.78;5030701;28;20046;-71
2021/06/05 05:25:57;;;;;;;18.83;10.50;;;;;;;14.63;83.25;101844.53;5019327;28;20397;-70
2021/06/05 05:28:25;;;;;;;13.15;9.18;;;;;;;14.72;85.25;101841.00;5042187;28;20061;-71
2021/06/05 05:30:54;;;;;;;12.40;8.25;;;;;;;14.63;84.02;101840.94;5011195;28;20351;-71
2021/06/05 05:33:22;;;;;;;16.45;8.57;;;;;;;14.55;82.42;101853.63;5010888;28;20042;-69
2021/06/05 05:35:51;;;;;;;16.08;8.40;;;;;;;14.67;86.02;101858.59;5019752;28;20385;-72
2021/06/05 05:38:20;;;;;;;17.05;9.55;;;;;;;14.51;84.94;101857.31;5028861;28;20051;-71
2021/06/05 05:40:48;;;;;;;18.25;9.05;;;;;;;14.15;83.82;101861.97;5028829;28;20477;-71
2021/06/05 05:43:16;;;;;;;18.13;8.67;;;;;;;13.93;84.75;101878.50;5013363;28;20042;-71
2021/06/05 05:45:44;;;;;;;18.92;9.13;;;;;;;14.37;86.75;101878.69;5033215;28;20041;-72
2021/06/05 05:48:12;;;;;;;15.13;8.18;;;;;;;14.01;84.79;101881.38;5024401;28;20062;-72
2021/06/05 05:50:41;;;;;;;16.02;8.30;;;;;;;13.82;86.47;101882.59;5016198;28;20050;-71
2021/06/05 05:53:09;;;;;;;13.93;8.52;;;;;;;14.14;86.46;101875.00;5048844;28;20049;-72
2021/06/05 05:55:36;;;;;;;14.18;7.57;;;;;;;14.11;83.95;101883.09;5048745;28;20057;-73
2021/06/05 05:58:06;;;;;;;15.20;8.15;;;;;;;13.89;84.90;101889.38;5017590;28;20054;-72
2021/06/05 06:00:36;;;;;;;16.27;8.23;;;;;;;13.90;85.40;101901.25;5030318;28;20056;-70
2021/06/05 06:03:04;;;;;;;;;;;;;;;14.14;87.54;101888.84;5053130;28;20056;-72
2021/06/05 06:05:34;;;;;;;13.07;7.38;;;;;;;14.19;85.45;101888.75;5068446;28;19928;-73
2021/06/05 06:08:03;;;;;;;18.15;8.57;;;;;;;14.02;84.20;101899.63;5037265;28;20488;-72
2021/06/05 06:10:30;;;;;;;17.33;7.47;;;;;;;14.13;84.13;101903.84;5035689;28;20053;-73
2021/06/05 06:12:58;;;;;;;12.90;7.60;;;;;;;14.32;83.76;101900.97;5001871;28;20300;-73
2021/06/05 06:15:28;;;;;;;16.90;8.52;;;;;;;14.02;84.38;101904.34;4983287;28;20049;-71
2021/06/05 06:17:57;;;;;;;17.87;7.23;;;;;;;14.80;85.69;101904.91;5000300;28;20477;-72
2021/06/05 06:20:40;;;;;;;14.32;8.25;;;;;;;14.51;82.64;101905.28;5017296;28;20057;-72
2021/06/05 06:23:12;;;;;;;14.18;7.60;;;;;;;14.38;81.98;101899.75;5017368;28;20050;-73
2021/06/05 06:25:40;;;;;;;13.85;7.72;;;;;;;14.02;83.44;101905.16;5037346;28;20053;-72
2021/06/05 06:28:12;;;;;;;16.52;7.47;;;;;;;14.42;85.29;101898.00;5035470;28;20050;-72
2021/06/05 06:30:42;;;;;;;13.38;6.88;;;;;;;14.99;81.25;101896.41;5035842;28;20231;-71
2021/06/05 06:33:12;;;;;;;14.95;7.15;;;;;;;14.51;81.46;101902.50;5019261;28;20064;-72
2021/06/05 06:35:41;;;;;;;15.20;7.28;;;;;;;14.72;80.55;101907.56;5033331;28;20069;-73
2021/06/05 06:38:12;;;;;;;17.50;8.25;;;;;;;13.94;83.56;101919.75;5017452;28;20474;-73
2021/06/05 06:40:40;;;;;;;19.40;6.68;;;;;;;14.94;85.45;101913.97;5014052;28;20058;-72
2021/06/05 06:43:10;;;;;;;12.00;7.22;;;;;;;14.73;80.32;101915.63;5048079;28;20060;-72
2021/06/05 06:45:50;;;;;;;15.38;7.28;;;;;;;14.59;82.74;101914.81;5000841;28;20053;-72
2021/06/05 06:48:18;;;;;;;15.20;6.95;;;;;;;14.97;80.40;101921.69;5024627;28;20053;-71
2021/06/05 06:50:45;;;;;;;13.95;6.78;;;;;;;15.45;81.63;101908.03;5033226;28;20521;-72
2021/06/05 06:53:13;;;;;;;11.77;6.72;;;;;;;15.66;76.69;101923.03;5050449;28;20060;-72
2021/06/05 06:55:40;;;;;;;15.73;7.13;;;;;;;15.22;77.50;101921.06;5035256;28;20385;-72
2021/06/05 06:58:07;;;;;;;12.80;6.60;;;;;;;14.70;79.36;101927.31;5031741;28;20056;-71
2021/06/05 07:00:38;;;;;;;14.00;7.43;;;;;;;14.49;81.36;101923.34;5032129;28;20144;-71
2021/06/05 07:03:06;;;;;;;13.52;7.45;;;;;;;14.38;82.70;101921.94;5015118;28;20049;-72
2021/06/05 07:05:33;;;;;;;16.40;7.95;;;;;;;14.35;82.82;101939.16;5011843;28;20066;-72
2021/06/05 07:08:18;;;;;;;13.00;6.93;;;;;;;14.78;81.02;101942.41;4996474;28;20501;-72
2021/06/05 07:10:48;;;;;;;12.60;7.43;;;;;;;14.92;79.98;101944.03;4996563;28;20073;-74
2021/06/05 07:13:16;;;;;;;11.45;7.13;;;;;;;14.74;81.15;101938.59;4997486;28;20116;-74
2021/06/05 07:15:46;;;;;;;14.07;7.50;;;;;;;14.99;80.09;101938.84;5033066;28;20354;-72
2021/06/05 07:18:15;;;;;;;15.05;8.38;;;;;;;14.55;81.71;101928.47;5015030;28;20049;-73
2021/06/05 07:20:45;;;;;;;14.38;8.63;;;;;;;14.19;83.62;101951.69;5033363;28;20054;-71
2021/06/05 07:23:12;;;;;;;21.48;9.13;;;;;;;14.05;84.33;101948.06;5015286;28;20053;-70
2021/06/05 07:25:40;;;;;;;16.55;8.63;;;;;;;14.15;84.93;101934.84;5031888;28;20050;-70
2021/06/05 07:28:32;;;;;;;14.20;8.38;;;;;;;14.54;83.16;101942.63;5032997;28;20041;-72
2021/06/05 07:31:01;;;;;;;14.05;8.70;;;;;;;14.55;82.67;101933.19;5031668;28;20046;-71
2021/06/05 07:33:29;;;;;;;22.27;8.95;;;;;;;14.64;82.25;101934.13;5031382;28;20053;-73
2021/06/05 07:35:58;;;;;;;14.98;8.60;;;;;;;14.78;82.03;101946.00;5021393;28;20050;-72
2021/06/05 07:38:27;;;;;;;10.05;7.18;;;;;;;15.42;80.79;101945.59;5011814;28;20046;-72
2021/06/05 07:40:57;;;;;;;19.55;8.48;;;;;;;15.00;80.37;101943.25;5013024;28;20065;-73
2021/06/05 07:43:27;;;;;;;18.52;8.20;;;;;;;14.85;80.93;101943.63;5011525;28;20056;-73
2021/06/05 07:45:56;;;;;;;17.85;7.30;;;;;;;14.92;80.20;101945.97;5011609;28;20042;-71
2021/06/05 07:48:24;;;;;;;17.20;7.10;;;;;;;15.00;79.91;101943.25;5024668;28;20053;-72
2021/06/05 07:50:52;;;;;;;14.95;6.93;;;;;;;15.22;78.63;101936.94;5031714;28;20045;-72
2021/06/05 07:53:19;;;;;;;14.82;7.72;;;;;;;15.39;78.49;101945.38;5063580;28;20055;-71
2021/06/05 07:55:47;;;;;;;13.25;6.95;;;;;;;15.79;77.62;101933.25;5032311;28;20065;-73
2021/06/05 07:58:15;;;;;;;10.00;6.20;;;;;;;15.82;77.76;101942.88;5032068;28;20053;-73
2021/06/05 08:00:43;;;;;;;16.48;7.03;;;;;;;15.41;76.97;101948.69;5015199;28;20050;-72
2021/06/05 08:03:11;;;;;;;14.73;7.22;;;;;;;15.37;77.08;101947.63;5029491;28;20053;-73
2021/06/05 08:05:40;;;;;;;13.25;7.03;;;;;;;14.94;78.77;101949.25;4999179;28;20497;-73
2021/06/05 08:08:10;;;;;;;15.20;7.07;;;;;;;15.10;79.47;101948.56;5029918;28;20049;-72
2021/06/05 08:10:39;;;;;;;17.02;7.45;;;;;;;15.13;78.61;101956.25;5029940;28;20504;-73
2021/06/05 08:13:07;;;;;;;13.02;7.72;;;;;;;15.15;78.09;101951.22;5013478;28;20042;-72
2021/06/05 08:15:37;;;;;;;12.55;6.97;;;;;;;15.14;78.73;101952.38;5016686;28;20477;-73
2021/06/05 08:18:05;;;;;;;15.60;7.95;;;;;;;15.60;79.01;101954.88;5033382;28;20050;-72
2021/06/05 08:20:42;;;;;;;12.13;6.97;;;;;;;15.78;75.22;101940.75;4995045;28;20050;-74
2021/06/05 08:23:10;;;;;;;10.70;5.75;;;;;;;15.82;75.21;101951.22;5025154;28;20057;-72
2021/06/05 08:25:38;;;;;;;15.75;6.72;;;;;;;15.52;76.89;101941.72;5012864;28;20053;-73
2021/06/05 08:28:07;;;;;;;11.60;6.30;;;;;;;16.27;73.42;101952.72;5025838;28;20037;-74
2021/06/05 08:30:41;;;;;;;12.05;6.45;;;;;;;15.67;74.39;101956.03;5018087;28;20500;-72
2021/06/05 08:33:10;;;;;;;12.80;6.45;;;;;;;15.56;77.00;101949.13;5028140;28;20168;-74
2021/06/05 08:35:38;;;;;;;13.55;6.38;;;;;;;15.91;75.69;101949.31;5030047;28;20430;-72
2021/06/05 08:38:07;;;;;;;11.13;6.35;;;;;;;16.24;75.17;101950.59;5029677;28;20056;-72
2021/06/05 08:40:59;;;;;;;10.20;6.78;;;;;;;15.75;74.97;101958.06;5030758;28;20059;-74
2021/06/05 08:43:39;;;;;;;11.15;5.85;;;;;;;15.97;74.36;101950.81;5029714;28;20056;-73
2021/06/05 08:46:11;;;;;;;10.02;6.15;;;;;;;15.46;75.76;101943.81;5026554;28;20046;-73
2021/06/05 08:48:39;;;;;;;15.75;6.30;;;;;;;15.31;76.76;101948.88;5028359;28;20042;-72
2021/06/05 08:51:20;;;;;;;15.82;6.85;;;;;;;15.45;76.59;101942.19;5030083;28;20056;-71
2021/06/05 08:53:48;;;;;;;9.32;5.88;;;;;;;15.80;75.63;101932.09;5028937;28;20045;-73
2021/06/05 08:56:19;;;;;;;9.15;5.88;;;;;;;16.10;74.35;101933.22;5029916;28;20057;-70
2021/06/05 08:58:51;;;;;;;9.98;5.45;;;;;;;16.12;73.58;101930.94;5021697;28;20049;-75
2021/06/05 09:01:28;;;;;;;8.88;5.35;;;;;;;16.17;72.82;101928.84;5016212;28;20065;-75
2021/06/05 09:04:08;;;;;;;12.23;6.20;;;;;;;16.12;73.20;101928.97;5034142;28;20060;-71
2021/06/05 09:06:49;;;;;;;12.25;5.82;;;;;;;16.75;73.67;101922.97;5030914;28;20046;-71
2021/06/05 09:09:20;;;;;;;8.85;5.57;;;;;;;16.76;70.44;101932.94;5013553;28;20065;-73
2021/06/05 09:11:48;;;;;;;12.63;5.45;;;;;;;16.80;70.66;101942.28;5030056;28;20382;-74
2021/06/05 09:14:16;;;;;;;10.73;5.05;;;;;;;16.49;71.10;101941.56;5028558;28;20053;-72
2021/06/05 09:16:48;;;;;;;11.98;5.85;;;;;;;16.86;70.41;101964.06;5023566;28;20056;-75
2021/06/05 09:19:33;;;;;;;12.00;4.95;;;;;;;16.63;71.25;101951.41;5027075;28;20053;-76
2021/06/05 09:22:08;;;;;;;9.50;5.25;;;;;;;16.64;70.75;101953.06;5028323;28;20034;-75
2021/06/05 09:24:45;;;;;;;10.10;4.80;;;;;;;16.80;71.40;101945.06;5029647;28;20045;-77
2021/06/05 09:27:21;;;;;;;9.45;4.65;;;;;;;16.60;70.33;101942.88;5026957;28;20111;-72
2021/06/05 09:30:06;;;;;;;10.70;4.57;;;;;;;16.93;69.99;101943.28;5025298;28;20053;-70
2021/06/05 09:32:43;;;;;;;9.80;4.80;;;;;;;17.56;67.20;101960.97;5015337;28;20045;-76
2021/06/05 09:35:12;;;;;;;8.45;4.82;;;;;;;17.40;67.63;101950.66;5025880;28;20049;-75
2021/06/05 09:37:41;;;;;;;8.48;4.50;;;;;;;17.20;67.65;101952.13;5029436;28;20060;-78
2021/06/05 09:40:33;;;;;;;10.40;4.18;;;;;;;17.12;68.21;101966.84;5029358;28;20052;-73
2021/06/05 09:43:10;;;;;;;8.20;4.55;;;;;;;17.09;67.76;101947.19;5027366;28;20543;-72
2021/06/05 09:45:43;;;;;;;9.68;5.25;;;;;;;16.95;68.51;101950.13;5028961;28;20046;-70
2021/06/05 09:48:44;;;;;;;10.40;4.68;;;;;;;16.90;69.64;101958.66;5025084;28;20412;-70
2021/06/05 09:51:30;;;;;;;8.40;5.03;;;;;;;17.31;69.25;101953.41;5027382;28;20526;-74
2021/06/05 09:54:03;;;;;;;11.93;5.30;;;;;;;17.12;69.00;101947.34;5029885;28;20049;-72
2021/06/05 09:56:34;;;;;;;7.28;4.53;;;;;;;17.48;68.56;101952.63;5024855;28;20059;-72
2021/06/05 09:59:27;;;;;;;8.05;4.60;;;;;;;17.66;66.57;101960.63;5009231;28;20419;-71
2021/06/05 10:01:58;;;;;;;9.38;4.53;;;;;;;17.13;67.40;101960.16;5012044;28;20045;-73
2021/06/05 10:04:28;;;;;;;10.63;4.90;;;;;;;17.16;68.30;101956.69;5027192;28;20058;-71
2021/06/05 10:06:58;;;;;;;9.27;5.00;;;;;;;17.04;67.98;101964.88;5025550;28;20490;-72
2021/06/05 10:09:25;;;;;;;10.65;4.72;;;;;;;17.08;68.46;101954.75;5027008;28;20516;-73
2021/06/05 10:12:31;;;;;;;8.85;4.75;;;;;;;17.64;67.68;101948.97;5030212;28;20057;-72
2021/06/05 10:15:05;;;;;;;8.73;5.35;;;;;;;17.95;65.69;101946.78;4988643;28;20054;-73
2021/06/05 10:17:38;;;;;;;12.07;5.53;;;;;;;18.05;65.73;101947.53;5000809;28;20058;-71
2021/06/05 10:20:16;;;;;;;13.73;6.00;;;;;;;17.64;65.84;101956.53;5005332;28;20049;-69
2021/06/05 10:22:44;;;;;;;10.35;5.85;;;;;;;17.53;66.74;101956.06;4965599;28;20502;-70
2021/06/05 10:25:16;;;;;;;14.25;5.50;;;;;;;17.84;66.79;101953.03;4998283;28;20057;-70
2021/06/05 10:27:45;;;;;;;9.80;5.40;;;;;;;18.13;65.82;101952.28;4986934;28;20076;-70
2021/06/05 10:30:38;;;;;;;8.15;4.88;;;;;;;17.86;65.59;101957.13;4999642;28;20046;-70
2021/06/05 10:33:09;;;;;;;10.57;5.50;;;;;;;18.04;65.43;101951.50;4967905;28;20046;-74
2021/06/05 10:35:39;;;;;;;9.23;4.55;;;;;;;17.74;65.17;101964.53;4980085;28;20058;-72
2021/06/05 10:38:16;;;;;;;8.32;5.30;;;;;;;17.49;66.45;101957.84;4984922;28;20501;-70
2021/06/05 10:40:47;;;;;;;8.60;5.35;;;;;;;17.36;67.27;101961.63;4984480;28;20046;-73
2021/06/05 10:43:15;;;;;;;10.18;4.85;;;;;;;17.34;67.18;101963.91;4984372;28;20080;-73
2021/06/05 10:45:48;;;;;;;9.38;4.85;;;;;;;17.38;67.11;101962.09;5011324;28;20457;-70
2021/06/05 10:48:18;;;;;;;9.85;5.05;;;;;;;17.38;67.45;101958.50;4995198;28;20057;-74
2021/06/05 10:50:49;;;;;;;10.07;5.60;;;;;;;17.05;68.67;101969.28;5014939;28;20050;-69
2021/06/05 10:53:31;;;;;;;7.70;5.05;;;;;;;16.99;69.54;101956.69;5031989;28;20052;-71
2021/06/05 10:56:17;;;;;;;7.85;5.40;;;;;;;17.34;69.01;101958.34;5033427;28;20056;-69
2021/06/05 10:58:47;;;;;;;11.50;5.00;;;;;;;17.34;68.37;101963.91;5028109;28;20488;-68
2021/06/05 11:01:20;;;;;;;;;;;;;;;17.45;68.11;101948.47;5029042;28;20042;-70
2021/06/05 11:03:54;;;;;;;9.80;6.43;;;;;;;17.23;68.61;101951.47;5021011;28;19925;-69
2021/06/05 11:06:26;;;;;;;7.78;4.53;;;;;;;17.66;68.18;101955.03;5031264;28;20057;-66
2021/06/05 11:08:56;;;;;;;10.38;4.70;;;;;;;18.01;67.07;101943.81;5030288;28;20040;-68
2021/06/05 11:11:39;;;;;;;10.05;5.53;;;;;;;17.64;67.13;101951.75;5031924;28;20053;-68
2021/06/05 11:14:32;;;;;;;10.30;5.00;;;;;;;17.30;68.44;101954.56;5038712;28;20056;-68
2021/06/05 11:17:00;;;;;;;10.68;6.13;;;;;;;17.45;68.60;101956.03;5025644;28;20049;-71
2021/06/05 11:19:48;;;;;;;12.85;6.43;;;;;;;17.27;69.03;101949.66;5031423;28;20053;-67
2021/06/05 11:22:27;;;;;;;9.25;5.43;;;;;;;17.78;68.11;101946.00;5032255;28;20064;-70
2021/06/05 11:25:06;;;;;;;9.57;5.93;;;;;;;18.52;66.13;101943.59;5044247;28;20053;-71
2021/06/05 11:27:36;;;;;;;11.05;6.03;;;;;;;18.30;65.86;101957.78;5031531;28;20052;-68
2021/06/05 11:30:07;;;;;;;;;;;;;;;18.47;65.51;101947.41;5031607;28;20472;-71
2021/06/05 11:32:48;;;;;;;;;;;;;;;18.07;65.95;101950.81;5030941;28;19928;-67
2021/06/05 11:35:36;;;;;;;8.38;5.57;;;;;;;18.56;64.75;101945.38;5015736;28;19947;-71
2021/06/05 11:38:33;;;;;;;10.07;6.00;;;;;;;17.98;66.57;101939.72;5030681;28;20049;-68